createdAt,value
2022-10-19T00:03:27.994Z,88.85
2022-10-19T00:08:29.830Z,88.94
2022-10-19T00:13:31.621Z,89.00
2022-10-19T00:18:33.580Z,88.85
2022-10-19T00:23:35.609Z,88.82
2022-10-19T00:28:37.629Z,88.76
2022-10-19T00:33:40.994Z,88.75
2022-10-19T00:38:59.897Z,88.89
2022-10-19T00:44:05.480Z,88.97
2022-10-19T00:49:12.827Z,89.02
2022-10-19T00:54:17.579Z,89.06
2022-10-19T00:59:21.737Z,89.01
2022-10-19T01:04:26.167Z,88.95
2022-10-19T01:09:27.970Z,88.91
2022-10-19T01:14:54.765Z,88.77
2022-10-19T01:20:44.602Z,88.71
2022-10-19T01:25:46.486Z,88.65
2022-10-19T01:31:00.406Z,88.50
2022-10-19T01:36:33.479Z,88.41
2022-10-19T01:41:49.473Z,88.68
2022-10-19T01:47:04.728Z,89.19
2022-10-19T01:52:11.084Z,89.71
2022-10-19T01:57:17.952Z,90.21
2022-10-19T02:02:21.650Z,90.35
2022-10-19T02:07:25.404Z,90.38
2022-10-19T02:12:29.581Z,90.69
2022-10-19T02:17:38.137Z,90.97
2022-10-19T02:22:40.365Z,91.08
2022-10-19T02:27:44.114Z,91.15
2022-10-19T02:32:46.032Z,91.14
2022-10-19T02:37:48.006Z,90.94
2022-10-19T02:42:54.286Z,90.66
2022-10-19T02:48:02.895Z,90.53
2022-10-19T02:53:04.671Z,90.40
2022-10-19T02:58:06.554Z,90.20
2022-10-19T03:03:09.402Z,90.15
2022-10-19T03:08:11.897Z,90.32
2022-10-19T03:13:13.638Z,90.63
2022-10-19T03:18:15.741Z,90.78
2022-10-19T03:23:17.751Z,90.85
2022-10-19T03:28:19.612Z,90.89
2022-10-19T03:33:21.705Z,91.05
2022-10-19T03:38:32.669Z,91.30
2022-10-19T03:43:45.142Z,91.43
2022-10-19T03:48:47.513Z,91.56
2022-10-19T03:53:56.458Z,91.67
2022-10-19T03:59:01.265Z,91.61
2022-10-19T04:04:05.993Z,91.46
2022-10-19T04:09:11.507Z,91.38
2022-10-19T04:14:22.689Z,91.37
2022-10-19T04:19:34.104Z,91.31
2022-10-19T04:24:36.105Z,91.29
2022-10-19T04:29:38.006Z,91.25
2022-10-19T04:34:45.401Z,91.26
2022-10-19T04:39:47.475Z,91.28
2022-10-19T04:44:49.270Z,91.34
2022-10-19T04:49:51.079Z,91.48
2022-10-19T04:54:52.923Z,91.65
2022-10-19T04:59:54.958Z,91.72
2022-10-19T05:04:56.735Z,91.56
2022-10-19T05:09:59.020Z,91.34
2022-10-19T05:15:01.037Z,91.12
2022-10-19T05:20:03.068Z,90.95
2022-10-19T05:25:06.629Z,90.81
2022-10-19T05:30:09.166Z,90.72
2022-10-19T05:35:12.122Z,90.66
2022-10-19T05:40:13.999Z,90.62
2022-10-19T05:45:15.917Z,90.99
2022-10-19T05:50:18.280Z,91.49
2022-10-19T05:55:20.069Z,91.86
2022-10-19T06:00:22.058Z,92.05
2022-10-19T06:05:23.871Z,92.16
2022-10-19T06:10:40.785Z,92.24
2022-10-19T06:15:51.621Z,92.26
2022-10-19T06:20:53.732Z,92.18
2022-10-19T06:25:55.693Z,92.10
2022-10-19T06:31:00.727Z,92.05
2022-10-19T06:36:29.998Z,92.05
2022-10-19T06:41:32.263Z,91.90
2022-10-19T06:46:36.892Z,91.70
2022-10-19T06:51:40.666Z,91.56
2022-10-19T06:56:45.186Z,91.40
2022-10-19T07:01:47.322Z,91.29
2022-10-19T07:06:49.686Z,90.98
2022-10-19T07:11:52.171Z,90.51
2022-10-19T07:16:55.199Z,90.06
2022-10-19T07:21:57.516Z,89.61
2022-10-19T07:26:59.278Z,89.07
2022-10-19T07:32:01.118Z,88.54
2022-10-19T07:37:03.103Z,87.84
2022-10-19T07:42:05.176Z,87.33
2022-10-19T07:47:07.001Z,86.43
2022-10-19T07:52:08.761Z,84.25
2022-10-19T07:57:12.664Z,81.60
2022-10-19T08:02:17.052Z,81.45
2022-10-19T08:07:19.174Z,79.59
2022-10-19T08:12:21.364Z,77.35
2022-10-19T08:17:30.885Z,77.37
2022-10-19T08:22:33.169Z,76.78
2022-10-19T08:27:55.662Z,75.07
2022-10-19T08:33:12.653Z,74.53
2022-10-19T08:38:14.428Z,73.96
2022-10-19T08:43:45.053Z,71.01
2022-10-19T08:48:47.182Z,70.58
2022-10-19T08:53:58.266Z,69.98
2022-10-19T08:59:11.727Z,68.77
2022-10-19T09:04:47.656Z,68.10
2022-10-19T09:10:04.810Z,68.25
2022-10-19T09:15:26.646Z,67.04
2022-10-19T09:20:38.314Z,67.66
2022-10-19T09:25:40.856Z,68.06
2022-10-19T09:30:44.797Z,68.19
2022-10-19T09:35:47.770Z,68.71
2022-10-19T09:40:49.709Z,67.70
2022-10-19T09:46:02.646Z,68.38
2022-10-19T09:51:13.395Z,68.26
2022-10-19T09:56:21.262Z,66.79
2022-10-19T10:01:41.468Z,65.91
2022-10-19T10:06:48.598Z,67.61
2022-10-19T10:11:51.617Z,66.67
2022-10-19T10:17:01.176Z,63.57
2022-10-19T10:22:04.382Z,64.51
2022-10-19T10:27:06.688Z,65.77
2022-10-19T10:32:21.800Z,66.32
2022-10-19T10:37:30.953Z,65.88
2022-10-19T10:42:46.232Z,66.66
2022-10-19T10:47:52.214Z,67.69
2022-10-19T10:53:29.645Z,67.99
2022-10-19T10:58:43.361Z,68.03
2022-10-19T11:03:53.314Z,67.90
2022-10-19T11:09:20.540Z,67.68
2022-10-19T11:15:04.667Z,67.53
2022-10-19T11:20:14.061Z,67.22
2022-10-19T11:26:00.963Z,67.80
2022-10-19T11:31:29.666Z,65.93
2022-10-19T11:37:22.054Z,63.66
2022-10-19T11:42:55.153Z,62.36
2022-10-19T11:48:27.619Z,62.51
2022-10-19T11:53:50.169Z,61.00
2022-10-19T11:59:07.073Z,61.48
2022-10-19T12:04:21.723Z,61.87
2022-10-19T12:10:02.654Z,62.44
2022-10-19T12:15:33.664Z,62.10
2022-10-19T12:20:43.268Z,62.94
2022-10-19T12:25:46.490Z,63.80
2022-10-19T12:30:49.197Z,63.85
2022-10-19T12:36:13.071Z,64.36
2022-10-19T12:41:22.821Z,64.47
2022-10-19T12:46:41.204Z,64.01
2022-10-19T12:51:47.626Z,64.44
2022-10-19T12:56:58.715Z,65.27
2022-10-19T13:02:04.664Z,66.14
2022-10-19T13:07:08.830Z,66.58
2022-10-19T13:12:25.891Z,66.50
2022-10-19T13:17:34.588Z,66.37
2022-10-19T13:22:37.018Z,66.70
2022-10-19T13:27:39.699Z,66.78
2022-10-19T13:32:51.711Z,67.08
2022-10-19T13:38:09.282Z,67.42
2022-10-19T13:43:33.975Z,67.33
2022-10-19T13:49:08.602Z,67.20
2022-10-19T13:54:42.781Z,67.52
2022-10-19T14:00:09.789Z,68.02
2022-10-19T14:05:56.302Z,68.70
2022-10-19T14:11:35.375Z,68.14
2022-10-19T14:16:46.265Z,67.81
2022-10-19T14:21:48.030Z,67.50
2022-10-19T14:26:50.064Z,67.69
2022-10-19T14:31:53.408Z,67.96
2022-10-19T14:36:55.964Z,67.98
2022-10-19T14:42:04.264Z,68.60
2022-10-19T14:47:27.228Z,69.08
2022-10-19T14:52:38.831Z,69.11
2022-10-19T14:57:43.873Z,69.52
2022-10-19T15:02:57.175Z,69.94
2022-10-19T15:08:11.327Z,70.27
2022-10-19T15:13:25.367Z,70.89
2022-10-19T15:18:48.590Z,70.99
2022-10-19T15:23:52.999Z,70.87
2022-10-19T15:29:08.114Z,71.30
2022-10-19T15:34:24.743Z,72.06
2022-10-19T15:39:45.640Z,72.97
2022-10-19T15:44:51.030Z,73.60
2022-10-19T15:49:55.964Z,74.24
2022-10-19T15:54:59.857Z,74.84
2022-10-19T16:00:15.831Z,75.44
2022-10-19T16:05:17.580Z,75.80
2022-10-19T16:10:22.930Z,75.75
2022-10-19T16:15:24.854Z,75.60
2022-10-19T16:20:30.624Z,75.63
2022-10-19T16:25:32.485Z,75.88
2022-10-19T16:30:34.406Z,76.12
2022-10-19T16:35:39.325Z,76.19
2022-10-19T16:40:41.410Z,76.25
2022-10-19T16:45:43.820Z,76.34
2022-10-19T16:50:45.587Z,76.40
2022-10-19T16:56:04.458Z,76.56
2022-10-19T17:01:15.995Z,76.60
2022-10-19T17:06:19.160Z,76.56
2022-10-19T17:11:24.355Z,76.68
2022-10-19T17:16:29.074Z,76.88
2022-10-19T17:21:49.537Z,77.00
2022-10-19T17:27:05.338Z,77.34
2022-10-19T17:32:07.314Z,77.59
2022-10-19T17:37:09.260Z,77.85
2022-10-19T17:42:18.263Z,78.02
2022-10-19T17:47:20.834Z,78.27
2022-10-19T17:52:22.772Z,78.61
2022-10-19T17:57:25.022Z,78.89
2022-10-19T18:02:26.918Z,79.11
2022-10-19T18:07:29.303Z,79.24
2022-10-19T18:12:31.745Z,79.30
2022-10-19T18:17:33.638Z,79.38
2022-10-19T18:22:35.689Z,79.78
2022-10-19T18:27:37.823Z,79.91
2022-10-19T18:32:39.810Z,79.98
2022-10-19T18:37:41.688Z,80.11
2022-10-19T18:42:43.677Z,80.14
2022-10-19T18:47:45.755Z,80.10
2022-10-19T18:52:47.635Z,80.23
2022-10-19T18:57:50.393Z,80.36
2022-10-19T19:02:56.754Z,80.48
2022-10-19T19:08:00.131Z,80.78
2022-10-19T19:13:02.107Z,80.94
2022-10-19T19:18:04.517Z,81.33
2022-10-19T19:23:06.375Z,81.90
2022-10-19T19:28:08.563Z,82.33
2022-10-19T19:33:13.625Z,82.55
2022-10-19T19:38:16.538Z,82.55
2022-10-19T19:43:20.233Z,82.63
2022-10-19T19:48:22.956Z,82.65
2022-10-19T19:53:25.018Z,82.70
2022-10-19T19:58:26.766Z,82.69
2022-10-19T20:03:28.493Z,82.63
2022-10-19T20:08:31.365Z,82.44
2022-10-19T20:13:33.921Z,82.40
2022-10-19T20:18:35.938Z,82.42
2022-10-19T20:23:38.626Z,81.97
2022-10-19T20:28:40.768Z,81.95
2022-10-19T20:33:44.149Z,81.73
2022-10-19T20:38:55.631Z,81.75
2022-10-19T20:44:05.201Z,81.79
2022-10-19T20:49:07.482Z,81.64
2022-10-19T20:54:29.600Z,81.41
2022-10-19T20:59:39.577Z,81.97
2022-10-19T21:04:41.677Z,82.03
2022-10-19T21:09:49.216Z,82.17
2022-10-19T21:14:57.618Z,81.89
2022-10-19T21:19:59.630Z,82.02
2022-10-19T21:25:01.696Z,82.16
2022-10-19T21:30:04.288Z,82.26
2022-10-19T21:35:06.635Z,82.35
2022-10-19T21:40:09.317Z,82.37
2022-10-19T21:45:29.317Z,82.55
2022-10-19T21:50:32.670Z,82.17
2022-10-19T21:55:36.152Z,81.87
2022-10-19T22:00:38.051Z,82.07
2022-10-19T22:05:40.146Z,82.29
2022-10-19T22:10:56.706Z,82.67
2022-10-19T22:16:04.275Z,82.76
2022-10-19T22:21:13.130Z,83.08
2022-10-19T22:26:16.919Z,82.69
2022-10-19T22:31:18.668Z,82.98
2022-10-19T22:36:20.992Z,83.28
2022-10-19T22:41:22.879Z,83.38
2022-10-19T22:46:24.934Z,83.69
2022-10-19T22:51:26.837Z,84.01
2022-10-19T22:56:28.581Z,84.16
2022-10-19T23:01:30.999Z,84.15
2022-10-19T23:06:33.062Z,83.75
2022-10-19T23:11:34.862Z,83.08
2022-10-19T23:16:38.957Z,82.96
2022-10-19T23:21:50.592Z,82.86
2022-10-19T23:26:59.019Z,82.81
2022-10-19T23:32:01.062Z,82.82
2022-10-19T23:37:02.988Z,83.20
2022-10-19T23:42:04.708Z,83.01
2022-10-19T23:47:06.509Z,83.05
2022-10-19T23:52:08.236Z,83.26
2022-10-19T23:57:10.186Z,83.34
